This is the latest recevied weather packets stored in our database for station/object PA2JOK. If no packets are shown the sender has not sent any weather packets the latest 1 day(s).
| Time | Temp. | Humidity | Pressure | Rain* | Wind** | Luminosity | Snow |
|---|---|---|---|---|---|---|---|
| 1777987982 | 11.11° C | 76% | 1010.5 hPa | 0 mm | 1.79 m/s, 120° | - | - |
| 1777987082 | 10.56° C | 78% | 1010.6 hPa | 0 mm | 0.89 m/s, 164° | - | - |
| 1777986186 | 10.56° C | 78% | 1010.8 hPa | 0 mm | 3.58 m/s, 81° | - | - |
| 1777985282 | 10.56° C | 77% | 1011 hPa | 0 mm | 0 m/s | - | - |
| 1777984383 | 10.56° C | 78% | 1010.8 hPa | 0 mm | 0 m/s | - | - |
| 1777983482 | 10.56° C | 78% | 1010.9 hPa | 0 mm | 1.79 m/s, 91° | - | - |
| 1777982583 | 10.56° C | 79% | 1010.8 hPa | 0 mm | 0 m/s | - | - |
| 1777981683 | 10.56° C | 80% | 1011 hPa | 0 mm | 1.79 m/s, 96° | - | - |
| 1777980783 | 10.56° C | 80% | 1011 hPa | 0 mm | 0 m/s | - | - |
| 1777979883 | 10° C | 81% | 1010.9 hPa | 0 mm | 1.79 m/s, 102° | - | - |
| 1777978983 | 10° C | 80% | 1011.1 hPa | 0 mm | 0.89 m/s, 129° | - | - |
| 1777978082 | 10° C | 81% | 1011.3 hPa | 0 mm | 0.89 m/s, 79° | - | - |
| 1777977183 | 10° C | 82% | 1011.3 hPa | 0 mm | 2.68 m/s, 73° | - | - |
| 1777976282 | 10° C | 82% | 1011.3 hPa | 0 mm | 4.47 m/s, 79° | - | - |
| 1777975382 | 10° C | 83% | 1011.3 hPa | 0 mm | 0.89 m/s, 96° | - | - |
| 1777974482 | 9.44° C | 83% | 1011.4 hPa | 0 mm | 4.47 m/s, 102° | - | - |
| 1777973583 | 9.44° C | 84% | 1011.4 hPa | 0 mm | 0.89 m/s, 123° | - | - |
| 1777972683 | 9.44° C | 84% | 1011.5 hPa | 0 mm | 2.68 m/s, 82° | - | - |
| 1777971782 | 9.44° C | 85% | 1011.6 hPa | 0 mm | 0.89 m/s, 108° | - | - |
| 1777970882 | 8.89° C | 85% | 1011.4 hPa | 0 mm | 3.58 m/s, 67° | - | - |
| 1777969983 | 8.89° C | 85% | 1011.5 hPa | 0 mm | 1.79 m/s, 78° | - | - |
| 1777969083 | 8.89° C | 86% | 1011.4 hPa | 0 mm | 1.79 m/s, 104° | - | - |
| 1777968182 | 8.89° C | 86% | 1011.5 hPa | 0 mm | 3.58 m/s, 102° | - | - |
| 1777967283 | 8.89° C | 86% | 1011.5 hPa | 0 mm | 1.79 m/s, 115° | - | - |
| 1777966383 | 8.89° C | 87% | 1011.3 hPa | 0 mm | 1.79 m/s, 71° | - | - |
* Rain latest hour (hover to see other rain measurements)
** Current wind speed in m/s (hover to see current wind gust speed)